sensor_id;sensor_type;location;lat;lon;timestamp;temperature;humidity
13982;DHT22;7065;50.880;5.502;2023-08-01T00:00:47;16.80;99.90
13982;DHT22;7065;50.880;5.502;2023-08-01T00:03:12;16.80;99.90
13982;DHT22;7065;50.880;5.502;2023-08-01T00:05:39;16.80;99.90
13982;DHT22;7065;50.880;5.502;2023-08-01T00:08:13;16.80;99.90
13982;DHT22;7065;50.880;5.502;2023-08-01T00:10:40;16.80;99.90
13982;DHT22;7065;50.880;5.502;2023-08-01T00:13:06;16.70;99.90
13982;DHT22;7065;50.880;5.502;2023-08-01T00:15:31;16.70;99.90
13982;DHT22;7065;50.880;5.502;2023-08-01T00:17:57;16.70;99.90
13982;DHT22;7065;50.880;5.502;2023-08-01T00:20:23;16.70;99.90
13982;DHT22;7065;50.880;5.502;2023-08-01T00:22:48;16.60;99.90
13982;DHT22;7065;50.880;5.502;2023-08-01T00:25:14;16.70;99.90
13982;DHT22;7065;50.880;5.502;2023-08-01T00:27:40;16.60;99.90
13982;DHT22;7065;50.880;5.502;2023-08-01T00:30:07;16.60;99.90
13982;DHT22;7065;50.880;5.502;2023-08-01T00:32:33;16.50;99.90
13982;DHT22;7065;50.880;5.502;2023-08-01T00:34:58;16.50;99.90
13982;DHT22;7065;50.880;5.502;2023-08-01T00:37:24;16.50;99.90
13982;DHT22;7065;50.880;5.502;2023-08-01T00:39:50;16.50;99.90
13982;DHT22;7065;50.880;5.502;2023-08-01T00:42:16;16.50;99.90
13982;DHT22;7065;50.880;5.502;2023-08-01T00:44:43;16.40;99.90
13982;DHT22;7065;50.880;5.502;2023-08-01T00:47:09;16.40;99.90
13982;DHT22;7065;50.880;5.502;2023-08-01T00:49:36;16.40;99.90
13982;DHT22;7065;50.880;5.502;2023-08-01T00:52:02;16.40;99.90
13982;DHT22;7065;50.880;5.502;2023-08-01T00:54:27;16.40;99.90
13982;DHT22;7065;50.880;5.502;2023-08-01T00:56:55;16.40;99.90
13982;DHT22;7065;50.880;5.502;2023-08-01T00:59:21;16.30;99.90
13982;DHT22;7065;50.880;5.502;2023-08-01T01:01:47;16.30;99.90
13982;DHT22;7065;50.880;5.502;2023-08-01T01:04:12;16.30;99.90
13982;DHT22;7065;50.880;5.502;2023-08-01T01:07:25;16.30;99.90
13982;DHT22;7065;50.880;5.502;2023-08-01T01:09:32;16.30;99.90
13982;DHT22;7065;50.880;5.502;2023-08-01T01:11:59;16.30;99.90
13982;DHT22;7065;50.880;5.502;2023-08-01T01:14:26;16.30;99.90
13982;DHT22;7065;50.880;5.502;2023-08-01T01:16:52;16.30;99.90
13982;DHT22;7065;50.880;5.502;2023-08-01T01:19:19;16.30;99.90
13982;DHT22;7065;50.880;5.502;2023-08-01T01:21:45;16.30;99.90
13982;DHT22;7065;50.880;5.502;2023-08-01T01:24:12;16.30;99.90
13982;DHT22;7065;50.880;5.502;2023-08-01T01:26:40;16.30;99.90
13982;DHT22;7065;50.880;5.502;2023-08-01T01:29:07;16.30;99.90
13982;DHT22;7065;50.880;5.502;2023-08-01T01:31:34;16.30;99.90
13982;DHT22;7065;50.880;5.502;2023-08-01T01:34:01;16.20;99.90
13982;DHT22;7065;50.880;5.502;2023-08-01T01:36:27;16.20;99.90
13982;DHT22;7065;50.880;5.502;2023-08-01T01:38:53;16.10;99.90
13982;DHT22;7065;50.880;5.502;2023-08-01T01:41:18;16.20;99.90
13982;DHT22;7065;50.880;5.502;2023-08-01T01:43:44;16.10;99.90
13982;DHT22;7065;50.880;5.502;2023-08-01T01:46:10;16.10;99.90
13982;DHT22;7065;50.880;5.502;2023-08-01T01:48:35;16.10;99.90
13982;DHT22;7065;50.880;5.502;2023-08-01T01:51:01;16.10;99.90
13982;DHT22;7065;50.880;5.502;2023-08-01T01:53:27;16.10;99.90
13982;DHT22;7065;50.880;5.502;2023-08-01T01:55:53;16.10;99.90
13982;DHT22;7065;50.880;5.502;2023-08-01T01:58:19;16.00;99.90
13982;DHT22;7065;50.880;5.502;2023-08-01T02:00:45;16.00;99.90
13982;DHT22;7065;50.880;5.502;2023-08-01T02:03:10;15.90;99.90
13982;DHT22;7065;50.880;5.502;2023-08-01T02:05:39;15.90;99.90
13982;DHT22;7065;50.880;5.502;2023-08-01T02:08:05;15.80;99.90
13982;DHT22;7065;50.880;5.502;2023-08-01T02:10:31;15.80;99.90
13982;DHT22;7065;50.880;5.502;2023-08-01T02:12:57;15.80;99.90
13982;DHT22;7065;50.880;5.502;2023-08-01T02:15:22;15.70;99.90
13982;DHT22;7065;50.880;5.502;2023-08-01T02:17:48;15.70;99.90
13982;DHT22;7065;50.880;5.502;2023-08-01T02:20:14;15.70;99.90
13982;DHT22;7065;50.880;5.502;2023-08-01T02:22:40;15.70;99.90
13982;DHT22;7065;50.880;5.502;2023-08-01T02:25:05;15.60;99.90
13982;DHT22;7065;50.880;5.502;2023-08-01T02:27:31;15.60;99.90
13982;DHT22;7065;50.880;5.502;2023-08-01T02:29:57;15.60;99.90
13982;DHT22;7065;50.880;5.502;2023-08-01T02:32:22;15.60;99.90
13982;DHT22;7065;50.880;5.502;2023-08-01T02:34:48;15.60;99.90
13982;DHT22;7065;50.880;5.502;2023-08-01T02:37:14;15.60;99.90
13982;DHT22;7065;50.880;5.502;2023-08-01T02:39:40;15.50;99.90
13982;DHT22;7065;50.880;5.502;2023-08-01T02:42:06;15.50;99.90
13982;DHT22;7065;50.880;5.502;2023-08-01T02:44:32;15.50;99.90
13982;DHT22;7065;50.880;5.502;2023-08-01T02:46:57;15.50;99.90
13982;DHT22;7065;50.880;5.502;2023-08-01T02:49:23;15.50;99.90
13982;DHT22;7065;50.880;5.502;2023-08-01T02:51:49;15.50;99.90
13982;DHT22;7065;50.880;5.502;2023-08-01T02:54:14;15.50;99.90
13982;DHT22;7065;50.880;5.502;2023-08-01T02:56:40;15.50;99.90
13982;DHT22;7065;50.880;5.502;2023-08-01T02:59:09;15.40;99.90
13982;DHT22;7065;50.880;5.502;2023-08-01T03:01:36;15.40;99.90
13982;DHT22;7065;50.880;5.502;2023-08-01T03:04:02;15.50;99.90
13982;DHT22;7065;50.880;5.502;2023-08-01T03:06:29;15.40;99.90
13982;DHT22;7065;50.880;5.502;2023-08-01T03:08:55;15.40;99.90
13982;DHT22;7065;50.880;5.502;2023-08-01T03:11:21;15.40;99.90
13982;DHT22;7065;50.880;5.502;2023-08-01T03:13:46;15.40;99.90
13982;DHT22;7065;50.880;5.502;2023-08-01T03:16:12;15.40;99.90
13982;DHT22;7065;50.880;5.502;2023-08-01T03:18:38;15.40;99.90
13982;DHT22;7065;50.880;5.502;2023-08-01T03:21:04;15.40;99.90
13982;DHT22;7065;50.880;5.502;2023-08-01T03:23:30;15.40;99.90
13982;DHT22;7065;50.880;5.502;2023-08-01T03:25:56;15.40;99.90
13982;DHT22;7065;50.880;5.502;2023-08-01T03:28:21;15.40;99.90
13982;DHT22;7065;50.880;5.502;2023-08-01T03:30:47;15.40;99.90
13982;DHT22;7065;50.880;5.502;2023-08-01T03:33:16;15.40;99.90
13982;DHT22;7065;50.880;5.502;2023-08-01T03:35:42;15.40;99.90
13982;DHT22;7065;50.880;5.502;2023-08-01T03:38:07;15.40;99.90
13982;DHT22;7065;50.880;5.502;2023-08-01T03:40:33;15.40;99.90
13982;DHT22;7065;50.880;5.502;2023-08-01T03:42:59;15.40;99.90
13982;DHT22;7065;50.880;5.502;2023-08-01T03:45:24;15.40;99.90
13982;DHT22;7065;50.880;5.502;2023-08-01T03:47:50;15.40;99.90
13982;DHT22;7065;50.880;5.502;2023-08-01T03:50:16;15.40;99.90
13982;DHT22;7065;50.880;5.502;2023-08-01T03:52:41;15.30;99.90
13982;DHT22;7065;50.880;5.502;2023-08-01T03:55:07;15.30;99.90
13982;DHT22;7065;50.880;5.502;2023-08-01T03:57:33;15.30;99.90
13982;DHT22;7065;50.880;5.502;2023-08-01T04:00:00;15.30;99.90
13982;DHT22;7065;50.880;5.502;2023-08-01T04:02:26;15.30;99.90
13982;DHT22;7065;50.880;5.502;2023-08-01T04:04:51;15.30;99.90
13982;DHT22;7065;50.880;5.502;2023-08-01T04:07:18;15.30;99.90
13982;DHT22;7065;50.880;5.502;2023-08-01T04:09:44;15.20;99.90
13982;DHT22;7065;50.880;5.502;2023-08-01T04:12:10;15.20;99.90
13982;DHT22;7065;50.880;5.502;2023-08-01T04:14:35;15.20;99.90
13982;DHT22;7065;50.880;5.502;2023-08-01T04:17:01;15.20;99.90
13982;DHT22;7065;50.880;5.502;2023-08-01T04:19:26;15.20;99.90
13982;DHT22;7065;50.880;5.502;2023-08-01T04:21:52;15.20;99.90
13982;DHT22;7065;50.880;5.502;2023-08-01T04:24:18;15.10;99.90
13982;DHT22;7065;50.880;5.502;2023-08-01T04:26:43;15.10;99.90
13982;DHT22;7065;50.880;5.502;2023-08-01T04:29:09;15.10;99.90
13982;DHT22;7065;50.880;5.502;2023-08-01T04:31:35;15.10;99.90
13982;DHT22;7065;50.880;5.502;2023-08-01T04:34:00;15.10;99.90
13982;DHT22;7065;50.880;5.502;2023-08-01T04:36:26;15.10;99.90
13982;DHT22;7065;50.880;5.502;2023-08-01T04:38:52;15.10;99.90
13982;DHT22;7065;50.880;5.502;2023-08-01T04:41:18;15.10;99.90
13982;DHT22;7065;50.880;5.502;2023-08-01T04:43:44;15.10;99.90
13982;DHT22;7065;50.880;5.502;2023-08-01T04:46:09;15.00;99.90
13982;DHT22;7065;50.880;5.502;2023-08-01T04:48:35;15.00;99.90
13982;DHT22;7065;50.880;5.502;2023-08-01T04:51:01;14.90;99.90
13982;DHT22;7065;50.880;5.502;2023-08-01T04:53:26;14.90;99.90
13982;DHT22;7065;50.880;5.502;2023-08-01T04:55:52;14.90;99.90
13982;DHT22;7065;50.880;5.502;2023-08-01T04:58:18;14.90;99.90
13982;DHT22;7065;50.880;5.502;2023-08-01T05:00:43;15.00;99.90
13982;DHT22;7065;50.880;5.502;2023-08-01T05:03:09;15.00;99.90
13982;DHT22;7065;50.880;5.502;2023-08-01T05:05:35;15.10;99.90
13982;DHT22;7065;50.880;5.502;2023-08-01T05:08:00;15.10;99.90
13982;DHT22;7065;50.880;5.502;2023-08-01T05:10:26;15.10;99.90
13982;DHT22;7065;50.880;5.502;2023-08-01T05:12:52;15.10;99.90
13982;DHT22;7065;50.880;5.502;2023-08-01T05:15:17;15.10;99.90
13982;DHT22;7065;50.880;5.502;2023-08-01T05:17:43;15.10;99.90
13982;DHT22;7065;50.880;5.502;2023-08-01T05:20:10;15.10;99.90
13982;DHT22;7065;50.880;5.502;2023-08-01T05:22:35;15.10;99.90
13982;DHT22;7065;50.880;5.502;2023-08-01T05:25:01;15.10;99.90
13982;DHT22;7065;50.880;5.502;2023-08-01T05:27:27;15.10;99.90
13982;DHT22;7065;50.880;5.502;2023-08-01T05:29:53;15.10;99.90
13982;DHT22;7065;50.880;5.502;2023-08-01T05:32:18;15.20;99.90
13982;DHT22;7065;50.880;5.502;2023-08-01T05:34:44;15.30;99.90
13982;DHT22;7065;50.880;5.502;2023-08-01T05:37:10;15.30;99.90
13982;DHT22;7065;50.880;5.502;2023-08-01T05:39:35;15.30;99.90
13982;DHT22;7065;50.880;5.502;2023-08-01T05:42:01;15.30;99.90
13982;DHT22;7065;50.880;5.502;2023-08-01T05:44:27;15.40;99.90
13982;DHT22;7065;50.880;5.502;2023-08-01T05:46:53;15.40;99.90
13982;DHT22;7065;50.880;5.502;2023-08-01T05:49:18;15.40;99.90
13982;DHT22;7065;50.880;5.502;2023-08-01T05:51:44;15.40;99.90
13982;DHT22;7065;50.880;5.502;2023-08-01T05:54:10;15.40;99.90
13982;DHT22;7065;50.880;5.502;2023-08-01T05:56:35;15.40;99.90
13982;DHT22;7065;50.880;5.502;2023-08-01T05:59:01;15.40;99.90
13982;DHT22;7065;50.880;5.502;2023-08-01T06:01:27;15.40;99.90
13982;DHT22;7065;50.880;5.502;2023-08-01T06:03:52;15.40;99.90
13982;DHT22;7065;50.880;5.502;2023-08-01T06:06:18;15.50;99.90
13982;DHT22;7065;50.880;5.502;2023-08-01T06:08:44;15.50;99.90
13982;DHT22;7065;50.880;5.502;2023-08-01T06:11:09;15.60;99.90
13982;DHT22;7065;50.880;5.502;2023-08-01T06:13:35;15.60;99.90
13982;DHT22;7065;50.880;5.502;2023-08-01T06:16:01;15.60;99.90
13982;DHT22;7065;50.880;5.502;2023-08-01T06:18:27;15.60;99.90
13982;DHT22;7065;50.880;5.502;2023-08-01T06:20:52;15.70;99.90
13982;DHT22;7065;50.880;5.502;2023-08-01T06:23:18;15.70;99.90
13982;DHT22;7065;50.880;5.502;2023-08-01T06:25:44;15.60;99.90
13982;DHT22;7065;50.880;5.502;2023-08-01T06:28:09;15.60;99.90
13982;DHT22;7065;50.880;5.502;2023-08-01T06:30:35;15.60;99.90
13982;DHT22;7065;50.880;5.502;2023-08-01T06:33:01;15.60;99.90
13982;DHT22;7065;50.880;5.502;2023-08-01T06:35:26;15.60;99.90
13982;DHT22;7065;50.880;5.502;2023-08-01T06:37:53;15.70;99.90
13982;DHT22;7065;50.880;5.502;2023-08-01T06:40:18;15.70;99.90
13982;DHT22;7065;50.880;5.502;2023-08-01T06:42:44;15.70;99.90
13982;DHT22;7065;50.880;5.502;2023-08-01T06:45:10;15.80;99.90
13982;DHT22;7065;50.880;5.502;2023-08-01T06:47:35;15.80;99.90
13982;DHT22;7065;50.880;5.502;2023-08-01T06:50:01;15.80;99.90
13982;DHT22;7065;50.880;5.502;2023-08-01T06:52:27;15.80;99.90
13982;DHT22;7065;50.880;5.502;2023-08-01T06:54:52;15.80;99.90
13982;DHT22;7065;50.880;5.502;2023-08-01T06:57:18;15.80;99.90
13982;DHT22;7065;50.880;5.502;2023-08-01T06:59:44;15.90;99.90
13982;DHT22;7065;50.880;5.502;2023-08-01T07:02:09;15.90;99.90
13982;DHT22;7065;50.880;5.502;2023-08-01T07:04:36;16.00;99.90
13982;DHT22;7065;50.880;5.502;2023-08-01T07:07:03;16.00;99.90
13982;DHT22;7065;50.880;5.502;2023-08-01T07:09:29;16.10;99.90
13982;DHT22;7065;50.880;5.502;2023-08-01T07:11:54;16.10;99.90
13982;DHT22;7065;50.880;5.502;2023-08-01T07:14:20;16.10;99.90
13982;DHT22;7065;50.880;5.502;2023-08-01T07:16:46;16.00;99.90
13982;DHT22;7065;50.880;5.502;2023-08-01T07:19:12;16.00;99.90
13982;DHT22;7065;50.880;5.502;2023-08-01T07:21:39;16.10;99.90
13982;DHT22;7065;50.880;5.502;2023-08-01T07:24:05;16.20;99.90
13982;DHT22;7065;50.880;5.502;2023-08-01T07:26:31;16.20;99.90
13982;DHT22;7065;50.880;5.502;2023-08-01T07:28:57;16.30;99.90
13982;DHT22;7065;50.880;5.502;2023-08-01T07:31:22;16.30;99.90
13982;DHT22;7065;50.880;5.502;2023-08-01T07:33:48;16.30;99.90
13982;DHT22;7065;50.880;5.502;2023-08-01T07:36:14;16.30;99.90
13982;DHT22;7065;50.880;5.502;2023-08-01T07:38:39;16.40;99.90
13982;DHT22;7065;50.880;5.502;2023-08-01T07:41:06;16.40;99.90
13982;DHT22;7065;50.880;5.502;2023-08-01T07:43:32;16.50;99.90
13982;DHT22;7065;50.880;5.502;2023-08-01T07:45:59;16.50;99.90
13982;DHT22;7065;50.880;5.502;2023-08-01T07:48:25;16.60;99.90
13982;DHT22;7065;50.880;5.502;2023-08-01T07:50:51;16.80;99.90
13982;DHT22;7065;50.880;5.502;2023-08-01T07:53:16;16.80;99.90
13982;DHT22;7065;50.880;5.502;2023-08-01T07:55:42;16.90;99.90
13982;DHT22;7065;50.880;5.502;2023-08-01T07:58:08;16.90;99.90
13982;DHT22;7065;50.880;5.502;2023-08-01T08:00:37;16.80;99.90
13982;DHT22;7065;50.880;5.502;2023-08-01T08:03:03;16.80;99.90
13982;DHT22;7065;50.880;5.502;2023-08-01T08:05:31;17.00;99.90
13982;DHT22;7065;50.880;5.502;2023-08-01T08:07:56;17.00;99.90
13982;DHT22;7065;50.880;5.502;2023-08-01T08:10:22;17.00;99.90
13982;DHT22;7065;50.880;5.502;2023-08-01T08:12:48;17.00;99.90
13982;DHT22;7065;50.880;5.502;2023-08-01T08:15:13;17.10;99.90
13982;DHT22;7065;50.880;5.502;2023-08-01T08:17:41;17.30;99.90
13982;DHT22;7065;50.880;5.502;2023-08-01T08:20:07;17.40;99.90
13982;DHT22;7065;50.880;5.502;2023-08-01T08:22:33;17.40;99.90
13982;DHT22;7065;50.880;5.502;2023-08-01T08:24:58;17.50;99.90
13982;DHT22;7065;50.880;5.502;2023-08-01T08:27:24;17.60;99.90
13982;DHT22;7065;50.880;5.502;2023-08-01T08:29:50;17.50;99.90
13982;DHT22;7065;50.880;5.502;2023-08-01T08:32:16;17.40;99.90
13982;DHT22;7065;50.880;5.502;2023-08-01T08:34:42;17.30;99.90
13982;DHT22;7065;50.880;5.502;2023-08-01T08:37:07;17.20;99.90
13982;DHT22;7065;50.880;5.502;2023-08-01T08:39:33;17.00;99.90
13982;DHT22;7065;50.880;5.502;2023-08-01T08:41:59;17.00;99.90
13982;DHT22;7065;50.880;5.502;2023-08-01T08:44:25;16.90;99.90
13982;DHT22;7065;50.880;5.502;2023-08-01T08:46:54;16.90;99.90
13982;DHT22;7065;50.880;5.502;2023-08-01T08:49:21;16.90;99.90
13982;DHT22;7065;50.880;5.502;2023-08-01T08:51:48;16.90;99.90
13982;DHT22;7065;50.880;5.502;2023-08-01T08:54:15;17.00;99.90
13982;DHT22;7065;50.880;5.502;2023-08-01T08:56:41;17.10;99.90
13982;DHT22;7065;50.880;5.502;2023-08-01T08:59:08;17.20;99.90
13982;DHT22;7065;50.880;5.502;2023-08-01T09:01:36;17.40;99.90
13982;DHT22;7065;50.880;5.502;2023-08-01T09:04:02;17.50;99.90
13982;DHT22;7065;50.880;5.502;2023-08-01T09:06:45;17.60;99.90
13982;DHT22;7065;50.880;5.502;2023-08-01T09:09:12;17.60;99.90
13982;DHT22;7065;50.880;5.502;2023-08-01T09:11:49;17.60;99.90
13982;DHT22;7065;50.880;5.502;2023-08-01T09:14:16;17.40;99.90
13982;DHT22;7065;50.880;5.502;2023-08-01T09:16:43;17.40;99.90
13982;DHT22;7065;50.880;5.502;2023-08-01T09:19:10;17.40;99.90
13982;DHT22;7065;50.880;5.502;2023-08-01T09:21:39;17.50;99.90
13982;DHT22;7065;50.880;5.502;2023-08-01T09:24:12;17.60;99.90
13982;DHT22;7065;50.880;5.502;2023-08-01T09:26:39;17.80;99.90
13982;DHT22;7065;50.880;5.502;2023-08-01T09:29:05;18.00;99.90
13982;DHT22;7065;50.880;5.502;2023-08-01T09:31:34;18.10;99.90
13982;DHT22;7065;50.880;5.502;2023-08-01T09:34:01;18.20;99.90
13982;DHT22;7065;50.880;5.502;2023-08-01T09:36:30;18.40;99.90
13982;DHT22;7065;50.880;5.502;2023-08-01T09:39:03;18.50;99.90
13982;DHT22;7065;50.880;5.502;2023-08-01T09:41:30;18.50;99.90
13982;DHT22;7065;50.880;5.502;2023-08-01T09:43:56;18.70;99.90
13982;DHT22;7065;50.880;5.502;2023-08-01T09:46:23;18.70;99.90
13982;DHT22;7065;50.880;5.502;2023-08-01T09:48:48;18.70;99.90
13982;DHT22;7065;50.880;5.502;2023-08-01T09:51:15;18.70;99.90
13982;DHT22;7065;50.880;5.502;2023-08-01T09:53:56;18.80;99.90
13982;DHT22;7065;50.880;5.502;2023-08-01T09:56:23;18.80;99.90
13982;DHT22;7065;50.880;5.502;2023-08-01T09:58:51;18.70;99.90
13982;DHT22;7065;50.880;5.502;2023-08-01T10:01:19;18.70;99.90
13982;DHT22;7065;50.880;5.502;2023-08-01T10:03:50;18.80;99.90
13982;DHT22;7065;50.880;5.502;2023-08-01T10:06:21;18.80;99.90
13982;DHT22;7065;50.880;5.502;2023-08-01T10:08:48;18.90;99.90
13982;DHT22;7065;50.880;5.502;2023-08-01T10:11:17;19.00;99.90
13982;DHT22;7065;50.880;5.502;2023-08-01T10:13:43;19.00;99.90
13982;DHT22;7065;50.880;5.502;2023-08-01T10:16:10;19.00;99.90
13982;DHT22;7065;50.880;5.502;2023-08-01T10:18:36;19.10;99.90
13982;DHT22;7065;50.880;5.502;2023-08-01T10:21:05;19.30;99.90
13982;DHT22;7065;50.880;5.502;2023-08-01T10:23:32;19.20;99.90
13982;DHT22;7065;50.880;5.502;2023-08-01T10:25:59;19.00;99.90
13982;DHT22;7065;50.880;5.502;2023-08-01T10:28:36;18.80;99.90
13982;DHT22;7065;50.880;5.502;2023-08-01T10:31:16;18.90;99.90
13982;DHT22;7065;50.880;5.502;2023-08-01T10:33:44;19.20;99.90
13982;DHT22;7065;50.880;5.502;2023-08-01T10:36:16;19.40;99.90
13982;DHT22;7065;50.880;5.502;2023-08-01T10:38:52;19.40;99.90
13982;DHT22;7065;50.880;5.502;2023-08-01T10:41:20;19.30;99.90
13982;DHT22;7065;50.880;5.502;2023-08-01T10:43:45;19.40;99.90
13982;DHT22;7065;50.880;5.502;2023-08-01T10:46:11;19.30;99.90
13982;DHT22;7065;50.880;5.502;2023-08-01T10:48:51;19.20;99.90
13982;DHT22;7065;50.880;5.502;2023-08-01T10:51:17;19.10;99.90
13982;DHT22;7065;50.880;5.502;2023-08-01T10:53:43;19.20;99.90
13982;DHT22;7065;50.880;5.502;2023-08-01T10:56:16;19.30;99.90
13982;DHT22;7065;50.880;5.502;2023-08-01T10:58:42;19.40;99.90
13982;DHT22;7065;50.880;5.502;2023-08-01T11:01:08;19.40;99.90
13982;DHT22;7065;50.880;5.502;2023-08-01T11:03:38;19.30;99.90
13982;DHT22;7065;50.880;5.502;2023-08-01T11:06:04;19.10;99.90
13982;DHT22;7065;50.880;5.502;2023-08-01T11:08:38;19.00;99.90
13982;DHT22;7065;50.880;5.502;2023-08-01T11:11:10;19.00;99.90
13982;DHT22;7065;50.880;5.502;2023-08-01T11:13:36;19.20;99.90
13982;DHT22;7065;50.880;5.502;2023-08-01T11:16:05;19.40;99.90
13982;DHT22;7065;50.880;5.502;2023-08-01T11:18:42;19.40;99.90
13982;DHT22;7065;50.880;5.502;2023-08-01T11:21:08;19.30;99.90
13982;DHT22;7065;50.880;5.502;2023-08-01T11:23:33;19.30;99.90
13982;DHT22;7065;50.880;5.502;2023-08-01T11:25:59;19.50;99.90
13982;DHT22;7065;50.880;5.502;2023-08-01T11:28:25;19.70;99.90
13982;DHT22;7065;50.880;5.502;2023-08-01T11:30:50;19.80;99.90
13982;DHT22;7065;50.880;5.502;2023-08-01T11:33:24;19.80;99.90
13982;DHT22;7065;50.880;5.502;2023-08-01T11:35:56;20.00;99.90
13982;DHT22;7065;50.880;5.502;2023-08-01T11:38:24;20.00;99.90
13982;DHT22;7065;50.880;5.502;2023-08-01T11:40:51;20.10;99.90
13982;DHT22;7065;50.880;5.502;2023-08-01T11:43:17;20.30;99.90
13982;DHT22;7065;50.880;5.502;2023-08-01T11:45:51;20.40;99.90
13982;DHT22;7065;50.880;5.502;2023-08-01T11:48:17;20.30;99.90
13982;DHT22;7065;50.880;5.502;2023-08-01T11:50:43;20.40;99.90
13982;DHT22;7065;50.880;5.502;2023-08-01T11:53:21;20.50;99.90
13982;DHT22;7065;50.880;5.502;2023-08-01T11:55:48;20.60;99.90
13982;DHT22;7065;50.880;5.502;2023-08-01T11:58:15;20.70;99.90
13982;DHT22;7065;50.880;5.502;2023-08-01T12:00:41;20.50;99.90
13982;DHT22;7065;50.880;5.502;2023-08-01T12:03:09;20.50;99.90
13982;DHT22;7065;50.880;5.502;2023-08-01T12:05:41;20.80;99.90
13982;DHT22;7065;50.880;5.502;2023-08-01T12:08:14;20.90;99.90
13982;DHT22;7065;50.880;5.502;2023-08-01T12:10:43;20.90;99.90
13982;DHT22;7065;50.880;5.502;2023-08-01T12:13:22;20.70;99.90
13982;DHT22;7065;50.880;5.502;2023-08-01T12:15:52;20.50;99.90
13982;DHT22;7065;50.880;5.502;2023-08-01T12:18:27;20.30;99.90
13982;DHT22;7065;50.880;5.502;2023-08-01T12:20:53;20.40;99.90
13982;DHT22;7065;50.880;5.502;2023-08-01T12:23:19;20.50;99.90
13982;DHT22;7065;50.880;5.502;2023-08-01T12:25:46;20.50;99.90
13982;DHT22;7065;50.880;5.502;2023-08-01T12:28:13;20.40;99.90
13982;DHT22;7065;50.880;5.502;2023-08-01T12:30:40;20.20;99.90
13982;DHT22;7065;50.880;5.502;2023-08-01T12:33:09;20.00;99.90
13982;DHT22;7065;50.880;5.502;2023-08-01T12:35:39;19.80;99.90
13982;DHT22;7065;50.880;5.502;2023-08-01T12:38:05;19.70;99.90
13982;DHT22;7065;50.880;5.502;2023-08-01T12:40:31;19.60;99.90
13982;DHT22;7065;50.880;5.502;2023-08-01T12:42:57;19.60;99.90
13982;DHT22;7065;50.880;5.502;2023-08-01T12:45:22;19.80;99.90
13982;DHT22;7065;50.880;5.502;2023-08-01T12:47:49;19.90;99.90
13982;DHT22;7065;50.880;5.502;2023-08-01T12:50:14;20.00;99.90
13982;DHT22;7065;50.880;5.502;2023-08-01T12:52:41;19.90;99.90
13982;DHT22;7065;50.880;5.502;2023-08-01T12:55:07;19.80;99.90
13982;DHT22;7065;50.880;5.502;2023-08-01T12:57:33;19.70;99.90
13982;DHT22;7065;50.880;5.502;2023-08-01T12:59:59;19.60;99.90
13982;DHT22;7065;50.880;5.502;2023-08-01T13:02:25;19.50;99.90
13982;DHT22;7065;50.880;5.502;2023-08-01T13:04:51;19.40;99.90
13982;DHT22;7065;50.880;5.502;2023-08-01T13:07:17;19.30;99.90
13982;DHT22;7065;50.880;5.502;2023-08-01T13:09:43;19.30;99.90
13982;DHT22;7065;50.880;5.502;2023-08-01T13:12:08;19.30;99.90
13982;DHT22;7065;50.880;5.502;2023-08-01T13:14:34;19.40;99.90
13982;DHT22;7065;50.880;5.502;2023-08-01T13:17:00;19.70;99.90
13982;DHT22;7065;50.880;5.502;2023-08-01T13:19:26;19.90;99.90
13982;DHT22;7065;50.880;5.502;2023-08-01T13:21:52;20.20;99.90
13982;DHT22;7065;50.880;5.502;2023-08-01T13:24:17;20.40;99.90
13982;DHT22;7065;50.880;5.502;2023-08-01T13:26:43;20.70;99.90
13982;DHT22;7065;50.880;5.502;2023-08-01T13:29:08;21.00;99.90
13982;DHT22;7065;50.880;5.502;2023-08-01T13:31:34;21.20;99.90
13982;DHT22;7065;50.880;5.502;2023-08-01T13:34:00;21.40;99.90
13982;DHT22;7065;50.880;5.502;2023-08-01T13:36:25;21.60;99.90
13982;DHT22;7065;50.880;5.502;2023-08-01T13:38:51;21.70;99.90
13982;DHT22;7065;50.880;5.502;2023-08-01T13:41:17;21.40;99.90
13982;DHT22;7065;50.880;5.502;2023-08-01T13:43:43;21.00;99.90
13982;DHT22;7065;50.880;5.502;2023-08-01T13:46:16;20.80;99.90
13982;DHT22;7065;50.880;5.502;2023-08-01T13:48:44;20.70;99.90
13982;DHT22;7065;50.880;5.502;2023-08-01T13:51:11;20.50;99.90
13982;DHT22;7065;50.880;5.502;2023-08-01T13:53:38;20.20;99.90
13982;DHT22;7065;50.880;5.502;2023-08-01T13:56:15;20.10;99.90
13982;DHT22;7065;50.880;5.502;2023-08-01T13:58:41;20.00;99.90
13982;DHT22;7065;50.880;5.502;2023-08-01T14:01:09;19.90;99.90
13982;DHT22;7065;50.880;5.502;2023-08-01T14:03:38;19.80;99.90
13982;DHT22;7065;50.880;5.502;2023-08-01T14:06:09;19.60;99.90
13982;DHT22;7065;50.880;5.502;2023-08-01T14:08:35;19.30;99.90
13982;DHT22;7065;50.880;5.502;2023-08-01T14:11:02;19.20;99.90
13982;DHT22;7065;50.880;5.502;2023-08-01T14:13:28;19.10;99.90
13982;DHT22;7065;50.880;5.502;2023-08-01T14:15:54;18.90;99.90
13982;DHT22;7065;50.880;5.502;2023-08-01T14:18:20;18.80;99.90
13982;DHT22;7065;50.880;5.502;2023-08-01T14:20:46;18.80;99.90
13982;DHT22;7065;50.880;5.502;2023-08-01T14:23:11;18.90;99.90
13982;DHT22;7065;50.880;5.502;2023-08-01T14:25:38;19.00;99.90
13982;DHT22;7065;50.880;5.502;2023-08-01T14:28:03;19.20;99.90
13982;DHT22;7065;50.880;5.502;2023-08-01T14:30:29;19.50;99.90
13982;DHT22;7065;50.880;5.502;2023-08-01T14:33:03;19.80;99.90
13982;DHT22;7065;50.880;5.502;2023-08-01T14:35:29;20.30;99.90
13982;DHT22;7065;50.880;5.502;2023-08-01T14:37:55;20.70;99.90
13982;DHT22;7065;50.880;5.502;2023-08-01T14:40:22;21.00;99.90
13982;DHT22;7065;50.880;5.502;2023-08-01T14:42:48;21.10;99.90
13982;DHT22;7065;50.880;5.502;2023-08-01T14:45:14;21.10;99.90
13982;DHT22;7065;50.880;5.502;2023-08-01T14:47:40;21.00;99.90
13982;DHT22;7065;50.880;5.502;2023-08-01T14:50:07;21.00;99.90
13982;DHT22;7065;50.880;5.502;2023-08-01T14:52:33;21.00;99.90
13982;DHT22;7065;50.880;5.502;2023-08-01T14:54:59;21.00;99.90
13982;DHT22;7065;50.880;5.502;2023-08-01T14:57:24;21.00;99.90
13982;DHT22;7065;50.880;5.502;2023-08-01T14:59:50;21.30;99.90
13982;DHT22;7065;50.880;5.502;2023-08-01T15:02:16;21.40;99.90
13982;DHT22;7065;50.880;5.502;2023-08-01T15:04:42;21.30;99.90
13982;DHT22;7065;50.880;5.502;2023-08-01T15:07:07;21.20;99.90
13982;DHT22;7065;50.880;5.502;2023-08-01T15:09:33;21.00;99.90
13982;DHT22;7065;50.880;5.502;2023-08-01T15:12:00;20.80;99.90
13982;DHT22;7065;50.880;5.502;2023-08-01T15:14:26;20.60;99.90
13982;DHT22;7065;50.880;5.502;2023-08-01T15:16:51;20.50;99.90
13982;DHT22;7065;50.880;5.502;2023-08-01T15:19:18;20.40;99.90
13982;DHT22;7065;50.880;5.502;2023-08-01T15:21:46;20.30;99.90
13982;DHT22;7065;50.880;5.502;2023-08-01T15:24:12;20.10;99.90
13982;DHT22;7065;50.880;5.502;2023-08-01T15:26:38;20.00;99.90
13982;DHT22;7065;50.880;5.502;2023-08-01T15:29:04;20.00;99.90
13982;DHT22;7065;50.880;5.502;2023-08-01T15:31:29;19.80;99.90
13982;DHT22;7065;50.880;5.502;2023-08-01T15:33:55;19.60;99.90
13982;DHT22;7065;50.880;5.502;2023-08-01T15:36:28;19.50;99.90
13982;DHT22;7065;50.880;5.502;2023-08-01T15:38:55;19.30;99.90
13982;DHT22;7065;50.880;5.502;2023-08-01T15:41:21;19.20;99.90